createdAt,value
2023-04-30T00:02:41.555Z,100679.03
2023-04-30T00:07:41.434Z,100762.72
2023-04-30T00:12:34.921Z,100893.97
2023-04-30T00:23:06.062Z,100677.41
2023-04-30T00:27:59.611Z,100856.41
2023-04-30T00:32:57.349Z,100933.97
2023-04-30T00:37:50.736Z,100760.53
2023-04-30T00:42:44.179Z,100696.72
2023-04-30T00:47:37.836Z,100707.53
2023-04-30T00:52:39.577Z,100922.22
2023-04-30T00:57:57.020Z,100683.75
2023-04-30T01:03:04.001Z,100726.50
2023-04-30T01:08:19.750Z,100857.03
2023-04-30T01:13:22.005Z,100889.19
2023-04-30T01:18:20.053Z,100796.50
2023-04-30T01:23:45.282Z,100914.06
2023-04-30T01:28:50.540Z,100843.19
2023-04-30T01:33:49.931Z,100774.44
2023-04-30T01:38:57.737Z,100768.19
2023-04-30T01:44:02.789Z,100853.75
2023-04-30T01:49:10.510Z,100896.50
2023-04-30T01:54:11.118Z,100759.69
2023-04-30T01:59:06.450Z,100794.34
2023-04-30T02:04:00.224Z,100744.06
2023-04-30T02:08:53.862Z,100828.81
2023-04-30T02:13:50.250Z,100870.06
2023-04-30T02:18:46.612Z,100859.44
2023-04-30T02:23:40.274Z,100805.91
2023-04-30T02:28:34.644Z,100640.78
2023-04-30T02:33:27.978Z,100761.97
2023-04-30T02:38:23.042Z,100689.88
2023-04-30T02:43:19.582Z,100785.63
2023-04-30T02:48:27.436Z,100834.22
2023-04-30T02:53:25.342Z,100838.34
2023-04-30T02:58:19.259Z,100787.06
2023-04-30T03:03:24.466Z,100749.06
2023-04-30T03:08:46.912Z,100703.84
2023-04-30T03:14:15.386Z,100688.16
2023-04-30T03:19:26.875Z,100743.63
2023-04-30T03:24:27.243Z,100866.66
2023-04-30T03:29:22.674Z,100916.16
2023-04-30T03:35:07.877Z,100912.22
2023-04-30T03:40:21.461Z,100732.22
2023-04-30T03:45:18.556Z,100876.84
2023-04-30T03:50:13.260Z,100747.75
2023-04-30T03:55:08.449Z,100754.88
2023-04-30T04:00:02.294Z,100853.53
2023-04-30T04:05:08.457Z,100781.06
2023-04-30T04:10:11.218Z,100831.22
2023-04-30T04:15:07.157Z,100818.16
2023-04-30T04:20:06.242Z,100820.63
2023-04-30T04:25:02.997Z,100815.44
2023-04-30T04:29:58.393Z,100953.09
2023-04-30T04:34:58.661Z,100829.63
2023-04-30T04:39:55.361Z,100887.97
2023-04-30T04:44:53.417Z,100892.16
2023-04-30T04:49:46.703Z,100816.03
2023-04-30T04:54:40.416Z,100938.84
2023-04-30T04:59:33.929Z,100827.44
2023-04-30T05:04:32.220Z,100925.34
2023-04-30T05:09:28.413Z,100822.94
2023-04-30T05:14:22.408Z,100807.25
2023-04-30T05:19:16.211Z,100848.09
2023-04-30T05:24:10.991Z,100958.78
2023-04-30T05:29:04.422Z,100971.00
2023-04-30T05:33:57.994Z,100806.50
2023-04-30T05:38:51.850Z,100921.28
2023-04-30T05:43:49.962Z,100957.66
2023-04-30T05:48:43.356Z,100977.81
2023-04-30T05:53:36.550Z,100856.38
2023-04-30T05:58:29.664Z,100974.38
2023-04-30T06:03:24.151Z,100943.06
2023-04-30T06:08:17.432Z,100948.72
2023-04-30T06:13:11.776Z,100927.53
2023-04-30T06:18:05.222Z,100940.00
2023-04-30T06:23:00.233Z,100981.19
2023-04-30T06:27:54.254Z,100990.97
2023-04-30T06:32:50.556Z,100954.16
2023-04-30T06:37:43.846Z,100866.81
2023-04-30T06:42:38.748Z,100983.75
2023-04-30T06:47:38.471Z,100988.84
2023-04-30T06:52:32.175Z,100948.53
2023-04-30T06:57:25.900Z,100982.59
2023-04-30T07:02:22.056Z,101006.63
2023-04-30T07:07:15.548Z,100989.38
2023-04-30T07:12:08.934Z,101004.13
2023-04-30T07:17:02.006Z,100978.19
2023-04-30T07:21:56.748Z,100973.59
2023-04-30T07:26:50.116Z,100990.00
2023-04-30T07:31:43.269Z,100956.66
2023-04-30T07:36:38.707Z,100971.69
2023-04-30T07:41:33.605Z,100975.28
2023-04-30T07:46:27.002Z,100992.41
2023-04-30T07:51:20.308Z,100954.94
2023-04-30T07:56:13.777Z,100951.63
2023-04-30T08:01:08.497Z,100970.22
2023-04-30T08:06:12.093Z,100993.53
2023-04-30T08:11:05.351Z,100972.00
2023-04-30T08:15:58.612Z,100954.78
2023-04-30T08:20:55.976Z,100978.72
2023-04-30T08:25:49.154Z,100894.97
2023-04-30T08:30:44.838Z,100977.81
2023-04-30T08:35:38.157Z,100973.94
2023-04-30T08:40:50.477Z,100972.28
2023-04-30T08:45:44.733Z,100951.09
2023-04-30T08:50:40.109Z,100963.81
2023-04-30T08:55:35.718Z,100943.19
2023-04-30T09:00:29.172Z,100934.69
2023-04-30T09:05:22.736Z,100913.25
2023-04-30T09:10:16.926Z,100949.19
2023-04-30T09:15:13.151Z,100879.91
2023-04-30T09:20:11.262Z,100913.06
2023-04-30T09:25:05.266Z,100926.38
2023-04-30T09:29:58.666Z,100792.41
2023-04-30T09:34:53.305Z,100833.38
2023-04-30T09:39:51.810Z,100830.22
2023-04-30T09:44:45.187Z,100828.78
2023-04-30T09:49:41.949Z,100870.38
2023-04-30T09:54:37.799Z,100839.38
2023-04-30T09:59:32.298Z,100855.81
2023-04-30T10:04:26.300Z,100838.44
2023-04-30T10:09:30.023Z,100867.41
2023-04-30T10:14:34.485Z,100825.78
2023-04-30T10:19:33.181Z,100867.84
2023-04-30T10:24:26.718Z,100747.31
2023-04-30T10:35:28.003Z,100725.44
2023-04-30T10:40:26.743Z,100818.00
2023-04-30T10:45:52.816Z,100778.78
2023-04-30T10:51:13.036Z,100709.22
2023-04-30T10:56:09.266Z,100782.94
2023-04-30T11:01:08.974Z,100747.44
2023-04-30T11:06:04.062Z,100865.59
2023-04-30T11:11:01.935Z,100825.13
2023-04-30T11:15:55.572Z,100866.34
2023-04-30T11:21:16.354Z,100834.66
2023-04-30T11:26:12.268Z,100868.88
2023-04-30T11:31:06.165Z,100799.72
2023-04-30T11:36:02.133Z,100825.13
2023-04-30T11:40:58.134Z,100708.97
2023-04-30T11:46:08.911Z,100773.13
2023-04-30T11:51:05.758Z,100842.44
2023-04-30T11:56:04.163Z,100835.84
2023-04-30T12:01:03.688Z,100810.34
2023-04-30T12:05:56.912Z,100824.09
2023-04-30T12:10:55.216Z,100818.06
2023-04-30T12:16:03.460Z,100770.28
2023-04-30T12:20:56.929Z,100778.88
2023-04-30T12:25:53.358Z,100786.75
2023-04-30T12:30:54.520Z,100746.66
2023-04-30T12:35:54.476Z,100795.78
2023-04-30T12:40:49.497Z,100774.13
2023-04-30T12:45:52.153Z,100632.81
2023-04-30T12:50:50.580Z,100741.41
2023-04-30T12:55:47.204Z,100638.84
2023-04-30T13:00:49.047Z,100707.84
2023-04-30T13:05:42.975Z,100746.03
2023-04-30T13:10:38.309Z,100747.22
2023-04-30T13:15:33.046Z,100768.47
2023-04-30T13:20:26.620Z,100703.84
2023-04-30T13:25:20.000Z,100678.88
2023-04-30T13:30:13.761Z,100671.16
2023-04-30T13:35:10.374Z,100743.41
2023-04-30T13:40:04.266Z,100628.25
2023-04-30T13:45:00.230Z,100608.41
2023-04-30T13:50:01.513Z,100735.38
2023-04-30T13:54:57.440Z,100602.88
2023-04-30T14:00:02.475Z,100681.88
2023-04-30T14:05:06.426Z,100657.56
2023-04-30T14:10:01.545Z,100641.53
2023-04-30T14:14:55.660Z,100688.13
2023-04-30T14:19:49.149Z,100698.75
2023-04-30T14:24:42.572Z,100718.13
2023-04-30T14:29:37.387Z,100702.88
2023-04-30T14:34:30.802Z,100736.09
2023-04-30T14:39:24.008Z,100740.94
2023-04-30T14:44:17.425Z,100717.25
2023-04-30T14:49:12.469Z,100735.72
2023-04-30T14:54:05.876Z,100731.59
2023-04-30T14:59:02.737Z,100716.59
2023-04-30T15:03:55.972Z,100668.13
2023-04-30T15:08:52.899Z,100745.94
2023-04-30T15:13:48.213Z,100742.78
2023-04-30T15:18:41.597Z,100750.66
2023-04-30T15:23:35.810Z,100713.47
2023-04-30T15:28:33.785Z,100745.84
2023-04-30T15:33:31.245Z,100675.88
2023-04-30T15:38:24.758Z,100742.59
2023-04-30T15:43:19.878Z,100639.25
2023-04-30T15:48:25.685Z,100759.38
2023-04-30T15:53:19.179Z,100728.97
2023-04-30T15:58:13.239Z,100751.00
2023-04-30T16:03:06.918Z,100760.19
2023-04-30T16:08:01.786Z,100763.69
2023-04-30T16:12:54.954Z,100769.56
2023-04-30T16:17:48.255Z,100696.78
2023-04-30T16:22:41.398Z,100774.78
2023-04-30T16:27:37.515Z,100781.13
2023-04-30T16:32:31.573Z,100785.47
2023-04-30T16:37:24.850Z,100780.53
2023-04-30T16:42:21.102Z,100767.63
2023-04-30T16:47:17.366Z,100723.44
2023-04-30T16:52:14.029Z,100703.56
2023-04-30T16:57:09.614Z,100579.66
2023-04-30T17:02:06.695Z,100623.06
2023-04-30T17:07:02.605Z,100638.34
2023-04-30T17:12:00.914Z,100752.34
2023-04-30T17:16:54.272Z,100809.06
2023-04-30T17:21:53.599Z,100633.72
2023-04-30T17:26:51.539Z,100603.41
2023-04-30T17:31:47.547Z,100816.25
2023-04-30T17:36:44.757Z,100605.00
2023-04-30T17:41:51.766Z,100669.00
2023-04-30T17:52:55.879Z,100647.72
2023-04-30T17:57:54.392Z,100724.25
2023-04-30T18:02:51.888Z,100857.84
2023-04-30T18:08:14.497Z,100855.97
2023-04-30T18:13:12.761Z,100661.03
2023-04-30T18:18:11.080Z,100794.38
2023-04-30T18:23:08.436Z,100884.50
2023-04-30T18:28:03.925Z,100739.47
2023-04-30T18:32:58.384Z,100750.59
2023-04-30T18:43:25.837Z,100740.78
2023-04-30T18:48:52.702Z,100788.88
2023-04-30T18:54:02.109Z,100749.69
2023-04-30T18:59:01.614Z,100892.78
2023-04-30T19:04:00.074Z,100921.75
2023-04-30T19:09:01.773Z,100763.81
2023-04-30T19:13:59.863Z,100939.16
2023-04-30T19:18:53.537Z,100781.78
2023-04-30T19:23:47.150Z,100839.31
2023-04-30T19:28:42.114Z,100878.66
2023-04-30T19:33:39.489Z,100858.34
2023-04-30T19:38:32.974Z,100947.47
2023-04-30T19:43:26.909Z,100938.25
2023-04-30T19:48:57.414Z,100996.56
2023-04-30T19:53:52.264Z,100994.72
2023-04-30T19:58:49.021Z,100999.31
2023-04-30T20:03:54.546Z,100971.78
2023-04-30T20:09:26.619Z,100830.16
2023-04-30T20:14:26.394Z,100996.66
2023-04-30T20:27:11.271Z,101040.47
2023-04-30T20:32:12.627Z,101050.25
2023-04-30T20:37:11.440Z,100993.06
2023-04-30T20:42:19.291Z,101061.16
2023-04-30T20:47:25.971Z,100875.66
2023-04-30T20:52:25.992Z,100851.31
2023-04-30T20:57:19.497Z,100870.34
2023-04-30T21:02:12.891Z,101071.50
2023-04-30T21:07:07.946Z,101067.31
2023-04-30T21:12:01.499Z,101057.59
2023-04-30T21:16:54.724Z,101036.34
2023-04-30T21:21:47.903Z,101064.81
2023-04-30T21:26:45.408Z,101064.00
2023-04-30T21:31:38.642Z,101015.00
2023-04-30T21:36:35.536Z,100945.63
2023-04-30T21:41:30.394Z,100871.44
2023-04-30T21:46:25.661Z,100887.13
2023-04-30T21:51:19.029Z,100993.22
2023-04-30T21:56:13.155Z,100996.22
2023-04-30T22:01:06.815Z,101063.22
2023-04-30T22:06:02.035Z,101009.47
2023-04-30T22:10:59.048Z,100969.91
2023-04-30T22:15:52.706Z,100885.94
2023-04-30T22:20:46.067Z,100912.84
2023-04-30T22:25:40.872Z,100899.47
2023-04-30T22:30:34.403Z,100865.34
2023-04-30T22:35:28.907Z,100990.38
2023-04-30T22:40:23.533Z,100959.06
2023-04-30T22:45:18.615Z,101034.78
2023-04-30T22:50:12.048Z,101025.22
2023-04-30T22:55:06.894Z,100849.53
2023-04-30T23:00:00.583Z,100897.06
2023-04-30T23:04:55.550Z,100906.22
2023-04-30T23:09:51.388Z,101040.75
2023-04-30T23:14:46.801Z,100878.81
2023-04-30T23:19:40.178Z,101037.81
2023-04-30T23:24:37.555Z,101022.78
2023-04-30T23:29:30.823Z,101087.94
2023-04-30T23:34:27.472Z,100896.31
2023-04-30T23:39:35.544Z,100893.50
2023-04-30T23:44:32.319Z,100903.75
2023-04-30T23:49:28.330Z,100978.59
2023-04-30T23:54:22.494Z,101003.81
2023-04-30T23:59:16.275Z,101013.22
